sensor_id;sensor_type;location;lat;lon;timestamp;pressure;altitude;pressure_sealevel;temperature;humidity
8894;BME280;4483;48.622;9.230;2023-09-12T00:02:21;97538.81;;;20.36;91.20
8894;BME280;4483;48.622;9.230;2023-09-12T00:04:49;97538.81;;;20.36;91.23
8894;BME280;4483;48.622;9.230;2023-09-12T00:07:16;97535.94;;;20.39;92.05
8894;BME280;4483;48.622;9.230;2023-09-12T00:09:43;97531.00;;;20.46;91.56
8894;BME280;4483;48.622;9.230;2023-09-12T00:12:13;97536.22;;;20.46;91.31
8894;BME280;4483;48.622;9.230;2023-09-12T00:14:40;97530.19;;;20.45;91.67
8894;BME280;4483;48.622;9.230;2023-09-12T00:17:07;97531.97;;;20.45;91.51
8894;BME280;4483;48.622;9.230;2023-09-12T00:19:34;97524.13;;;20.45;91.31
8894;BME280;4483;48.622;9.230;2023-09-12T00:22:03;97525.53;;;20.49;91.22
8894;BME280;4483;48.622;9.230;2023-09-12T00:24:30;97518.94;;;20.54;91.21
8894;BME280;4483;48.622;9.230;2023-09-12T00:26:56;97525.66;;;20.47;90.04
8894;BME280;4483;48.622;9.230;2023-09-12T00:29:23;97525.81;;;20.25;90.11
8894;BME280;4483;48.622;9.230;2023-09-12T00:31:49;97524.00;;;20.05;90.70
8894;BME280;4483;48.622;9.230;2023-09-12T00:34:16;97531.38;;;20.00;92.66
8894;BME280;4483;48.622;9.230;2023-09-12T00:36:43;97521.06;;;19.98;92.90
8894;BME280;4483;48.622;9.230;2023-09-12T00:39:11;97526.50;;;20.07;92.91
8894;BME280;4483;48.622;9.230;2023-09-12T00:41:37;97525.16;;;20.12;92.67
8894;BME280;4483;48.622;9.230;2023-09-12T00:44:05;97526.31;;;20.19;93.16
8894;BME280;4483;48.622;9.230;2023-09-12T00:46:32;97527.47;;;20.26;92.58
8894;BME280;4483;48.622;9.230;2023-09-12T00:48:59;97523.06;;;20.27;92.22
8894;BME280;4483;48.622;9.230;2023-09-12T00:51:27;97516.72;;;20.29;92.57
8894;BME280;4483;48.622;9.230;2023-09-12T00:53:55;97508.44;;;20.24;91.93
8894;BME280;4483;48.622;9.230;2023-09-12T00:56:23;97512.59;;;20.27;92.44
8894;BME280;4483;48.622;9.230;2023-09-12T00:58:50;97505.97;;;20.23;92.14
8894;BME280;4483;48.622;9.230;2023-09-12T01:01:17;97501.81;;;20.20;92.25
8894;BME280;4483;48.622;9.230;2023-09-12T01:03:44;97513.44;;;20.27;92.43
8894;BME280;4483;48.622;9.230;2023-09-12T01:06:10;97513.44;;;20.27;92.19
8894;BME280;4483;48.622;9.230;2023-09-12T01:08:37;97518.91;;;20.24;91.50
8894;BME280;4483;48.622;9.230;2023-09-12T01:11:04;97517.50;;;20.20;91.36
8894;BME280;4483;48.622;9.230;2023-09-12T01:13:32;97513.72;;;20.13;92.12
8894;BME280;4483;48.622;9.230;2023-09-12T01:15:59;97519.44;;;20.07;91.67
8894;BME280;4483;48.622;9.230;2023-09-12T01:18:25;97515.31;;;20.04;92.23
8894;BME280;4483;48.622;9.230;2023-09-12T01:21:09;97522.97;;;19.96;92.03
8894;BME280;4483;48.622;9.230;2023-09-12T01:23:47;97516.03;;;19.86;93.42
8894;BME280;4483;48.622;9.230;2023-09-12T01:26:30;97522.66;;;19.90;92.75
8894;BME280;4483;48.622;9.230;2023-09-12T01:29:04;97517.00;;;19.85;93.12
8894;BME280;4483;48.622;9.230;2023-09-12T01:31:32;97523.28;;;19.82;92.97
8894;BME280;4483;48.622;9.230;2023-09-12T01:34:08;97513.19;;;19.78;92.92
8894;BME280;4483;48.622;9.230;2023-09-12T01:36:34;97507.03;;;19.79;93.42
8894;BME280;4483;48.622;9.230;2023-09-12T01:39:01;97518.91;;;19.83;93.29
8894;BME280;4483;48.622;9.230;2023-09-12T01:41:29;97521.50;;;19.83;92.61
8894;BME280;4483;48.622;9.230;2023-09-12T01:43:59;97521.88;;;19.78;92.96
8894;BME280;4483;48.622;9.230;2023-09-12T01:46:27;97524.06;;;19.73;92.78
8894;BME280;4483;48.622;9.230;2023-09-12T01:48:56;97529.91;;;19.66;92.76
8894;BME280;4483;48.622;9.230;2023-09-12T01:51:24;97523.72;;;19.67;93.06
8894;BME280;4483;48.622;9.230;2023-09-12T01:53:52;97520.78;;;19.60;92.22
8894;BME280;4483;48.622;9.230;2023-09-12T01:56:21;97529.09;;;19.54;93.15
8894;BME280;4483;48.622;9.230;2023-09-12T01:58:48;97527.59;;;19.52;93.63
8894;BME280;4483;48.622;9.230;2023-09-12T02:01:14;97528.97;;;19.56;94.80
8894;BME280;4483;48.622;9.230;2023-09-12T02:03:42;97522.69;;;19.58;93.67
8894;BME280;4483;48.622;9.230;2023-09-12T02:06:09;97509.31;;;19.52;93.51
8894;BME280;4483;48.622;9.230;2023-09-12T02:08:35;97519.84;;;19.50;92.82
8894;BME280;4483;48.622;9.230;2023-09-12T02:11:02;97518.81;;;19.42;93.35
8894;BME280;4483;48.622;9.230;2023-09-12T02:13:29;97519.94;;;19.39;93.73
8894;BME280;4483;48.622;9.230;2023-09-12T02:15:59;97513.59;;;19.31;93.47
8894;BME280;4483;48.622;9.230;2023-09-12T02:18:25;97519.09;;;19.39;94.60
8894;BME280;4483;48.622;9.230;2023-09-12T02:20:53;97517.41;;;19.38;93.65
8894;BME280;4483;48.622;9.230;2023-09-12T02:23:20;97524.78;;;19.33;93.71
8894;BME280;4483;48.622;9.230;2023-09-12T02:25:47;97521.56;;;19.29;93.60
8894;BME280;4483;48.622;9.230;2023-09-12T02:28:13;97523.34;;;19.29;93.41
8894;BME280;4483;48.622;9.230;2023-09-12T02:30:40;97511.47;;;19.25;93.81
8894;BME280;4483;48.622;9.230;2023-09-12T02:33:06;97513.50;;;19.21;93.64
8894;BME280;4483;48.622;9.230;2023-09-12T02:35:33;97502.03;;;19.13;93.86
8894;BME280;4483;48.622;9.230;2023-09-12T02:38:01;97509.75;;;19.14;94.18
8894;BME280;4483;48.622;9.230;2023-09-12T02:40:28;97514.63;;;19.08;93.80
8894;BME280;4483;48.622;9.230;2023-09-12T02:42:54;97502.63;;;19.05;95.32
8894;BME280;4483;48.622;9.230;2023-09-12T02:45:21;97486.53;;;19.00;94.32
8894;BME280;4483;48.622;9.230;2023-09-12T02:47:47;97506.41;;;19.12;94.53
8894;BME280;4483;48.622;9.230;2023-09-12T02:50:14;97497.78;;;19.12;94.69
8894;BME280;4483;48.622;9.230;2023-09-12T02:52:41;97499.69;;;19.10;94.28
8894;BME280;4483;48.622;9.230;2023-09-12T02:55:09;97493.88;;;19.06;94.60
8894;BME280;4483;48.622;9.230;2023-09-12T02:57:35;97503.22;;;19.08;94.98
8894;BME280;4483;48.622;9.230;2023-09-12T03:00:03;97498.84;;;19.09;94.66
8894;BME280;4483;48.622;9.230;2023-09-12T03:02:32;97500.38;;;19.12;94.29
8894;BME280;4483;48.622;9.230;2023-09-12T03:04:59;97499.28;;;19.14;94.84
8894;BME280;4483;48.622;9.230;2023-09-12T03:07:26;97502.38;;;19.19;94.70
8894;BME280;4483;48.622;9.230;2023-09-12T03:09:53;97495.22;;;19.21;93.84
8894;BME280;4483;48.622;9.230;2023-09-12T03:12:21;97499.38;;;19.24;94.12
8894;BME280;4483;48.622;9.230;2023-09-12T03:14:47;97499.13;;;19.27;94.18
8894;BME280;4483;48.622;9.230;2023-09-12T03:17:14;97501.03;;;19.25;93.81
8894;BME280;4483;48.622;9.230;2023-09-12T03:19:41;97496.06;;;19.22;93.16
8894;BME280;4483;48.622;9.230;2023-09-12T03:22:07;97501.91;;;19.14;93.09
8894;BME280;4483;48.622;9.230;2023-09-12T03:24:34;97500.16;;;19.03;93.00
8894;BME280;4483;48.622;9.230;2023-09-12T03:27:01;97503.97;;;18.88;93.64
8894;BME280;4483;48.622;9.230;2023-09-12T03:29:29;97502.34;;;18.87;95.25
8894;BME280;4483;48.622;9.230;2023-09-12T03:31:56;97489.50;;;18.84;94.69
8894;BME280;4483;48.622;9.230;2023-09-12T03:34:22;97483.47;;;18.95;94.09
8894;BME280;4483;48.622;9.230;2023-09-12T03:36:49;97482.63;;;18.94;93.54
8894;BME280;4483;48.622;9.230;2023-09-12T03:39:15;97485.97;;;18.85;93.66
8894;BME280;4483;48.622;9.230;2023-09-12T03:41:42;97490.34;;;18.85;94.86
8894;BME280;4483;48.622;9.230;2023-09-12T03:44:08;97487.16;;;18.81;94.39
8894;BME280;4483;48.622;9.230;2023-09-12T03:46:36;97487.03;;;18.72;94.78
8894;BME280;4483;48.622;9.230;2023-09-12T03:49:03;97485.38;;;18.71;95.00
8894;BME280;4483;48.622;9.230;2023-09-12T03:51:29;97489.78;;;18.70;94.15
8894;BME280;4483;48.622;9.230;2023-09-12T03:53:56;97483.97;;;18.56;94.76
8894;BME280;4483;48.622;9.230;2023-09-12T03:56:23;97493.56;;;18.66;95.45
8894;BME280;4483;48.622;9.230;2023-09-12T03:58:49;97491.53;;;18.70;95.05
8894;BME280;4483;48.622;9.230;2023-09-12T04:01:16;97490.94;;;18.66;93.97
8894;BME280;4483;48.622;9.230;2023-09-12T04:03:44;97488.94;;;18.59;95.14
8894;BME280;4483;48.622;9.230;2023-09-12T04:06:12;97490.88;;;18.57;95.58
8894;BME280;4483;48.622;9.230;2023-09-12T04:08:39;97440.69;;;18.20;96.48
8894;BME280;4483;48.622;9.230;2023-09-12T04:11:06;97495.47;;;18.53;96.15
8894;BME280;4483;48.622;9.230;2023-09-12T04:13:32;97489.78;;;18.48;95.93
8894;BME280;4483;48.622;9.230;2023-09-12T04:15:59;97497.13;;;18.54;96.99
8894;BME280;4483;48.622;9.230;2023-09-12T04:18:26;97503.78;;;18.58;96.48
8894;BME280;4483;48.622;9.230;2023-09-12T04:20:54;97500.47;;;18.67;96.55
8894;BME280;4483;48.622;9.230;2023-09-12T04:23:24;97502.34;;;18.76;95.65
8894;BME280;4483;48.622;9.230;2023-09-12T04:25:51;97497.84;;;18.78;94.95
8894;BME280;4483;48.622;9.230;2023-09-12T04:28:17;97503.88;;;18.79;94.96
8894;BME280;4483;48.622;9.230;2023-09-12T04:30:44;97501.63;;;18.74;94.62
8894;BME280;4483;48.622;9.230;2023-09-12T04:33:11;97495.81;;;18.71;94.68
8894;BME280;4483;48.622;9.230;2023-09-12T04:35:38;97497.84;;;18.67;95.97
8894;BME280;4483;48.622;9.230;2023-09-12T04:38:05;97493.47;;;18.68;95.64
8894;BME280;4483;48.622;9.230;2023-09-12T04:40:32;97486.81;;;18.75;95.67
8894;BME280;4483;48.622;9.230;2023-09-12T04:42:59;97491.44;;;18.82;94.55
8894;BME280;4483;48.622;9.230;2023-09-12T04:45:25;97487.25;;;18.91;93.51
8894;BME280;4483;48.622;9.230;2023-09-12T04:47:52;97485.09;;;18.96;92.21
8894;BME280;4483;48.622;9.230;2023-09-12T04:50:18;97469.09;;;18.89;91.24
8894;BME280;4483;48.622;9.230;2023-09-12T04:52:45;97492.09;;;18.95;90.17
8894;BME280;4483;48.622;9.230;2023-09-12T04:55:13;97464.03;;;18.77;90.07
8894;BME280;4483;48.622;9.230;2023-09-12T04:57:39;97481.91;;;18.92;89.72
8894;BME280;4483;48.622;9.230;2023-09-12T05:00:07;97481.91;;;18.92;89.79
8894;BME280;4483;48.622;9.230;2023-09-12T05:02:36;97472.31;;;18.93;89.64
8894;BME280;4483;48.622;9.230;2023-09-12T05:05:03;97478.56;;;19.01;88.78
8894;BME280;4483;48.622;9.230;2023-09-12T05:07:30;97477.97;;;18.98;88.64
8894;BME280;4483;48.622;9.230;2023-09-12T05:09:56;97485.25;;;18.83;89.66
8894;BME280;4483;48.622;9.230;2023-09-12T05:12:24;97487.97;;;18.82;90.15
8894;BME280;4483;48.622;9.230;2023-09-12T05:14:51;97486.41;;;18.90;90.06
8894;BME280;4483;48.622;9.230;2023-09-12T05:17:17;97479.03;;;18.95;89.33
8894;BME280;4483;48.622;9.230;2023-09-12T05:19:44;97481.44;;;18.98;89.25
8894;BME280;4483;48.622;9.230;2023-09-12T05:22:10;97479.97;;;19.05;89.50
8894;BME280;4483;48.622;9.230;2023-09-12T05:24:37;97479.00;;;19.06;89.14
8894;BME280;4483;48.622;9.230;2023-09-12T05:27:04;97489.56;;;19.16;89.06
8894;BME280;4483;48.622;9.230;2023-09-12T05:29:32;97483.59;;;19.25;88.82
8894;BME280;4483;48.622;9.230;2023-09-12T05:31:59;97479.31;;;19.35;88.76
8894;BME280;4483;48.622;9.230;2023-09-12T05:34:25;97472.63;;;19.42;88.28
8894;BME280;4483;48.622;9.230;2023-09-12T05:36:52;97485.75;;;19.63;87.98
8894;BME280;4483;48.622;9.230;2023-09-12T05:39:18;97496.44;;;19.80;87.35
8894;BME280;4483;48.622;9.230;2023-09-12T05:41:45;97488.53;;;19.91;86.85
8894;BME280;4483;48.622;9.230;2023-09-12T05:44:12;97504.78;;;20.16;86.37
8894;BME280;4483;48.622;9.230;2023-09-12T05:46:44;97499.25;;;20.30;85.42
8894;BME280;4483;48.622;9.230;2023-09-12T05:49:11;97502.22;;;20.46;85.11
8894;BME280;4483;48.622;9.230;2023-09-12T05:51:37;97506.88;;;20.42;84.64
8894;BME280;4483;48.622;9.230;2023-09-12T05:54:04;97502.19;;;20.36;84.59
8894;BME280;4483;48.622;9.230;2023-09-12T05:56:31;97504.34;;;20.31;85.03
8894;BME280;4483;48.622;9.230;2023-09-12T05:58:58;97510.41;;;20.32;85.25
8894;BME280;4483;48.622;9.230;2023-09-12T06:01:24;97503.97;;;20.36;85.20
8894;BME280;4483;48.622;9.230;2023-09-12T06:03:52;97501.00;;;20.50;85.33
8894;BME280;4483;48.622;9.230;2023-09-12T06:06:19;97506.47;;;20.77;85.13
8894;BME280;4483;48.622;9.230;2023-09-12T06:08:45;97499.44;;;20.77;84.26
8894;BME280;4483;48.622;9.230;2023-09-12T06:11:12;97502.34;;;20.74;83.82
8894;BME280;4483;48.622;9.230;2023-09-12T06:13:39;97509.53;;;20.82;84.55
8894;BME280;4483;48.622;9.230;2023-09-12T06:16:06;97502.06;;;20.77;84.68
8894;BME280;4483;48.622;9.230;2023-09-12T06:18:32;97504.41;;;20.80;84.97
8894;BME280;4483;48.622;9.230;2023-09-12T06:21:01;97513.41;;;20.87;85.29
8894;BME280;4483;48.622;9.230;2023-09-12T06:23:29;97501.28;;;20.96;84.48
8894;BME280;4483;48.622;9.230;2023-09-12T06:25:56;97504.28;;;20.91;84.77
8894;BME280;4483;48.622;9.230;2023-09-12T06:28:26;97516.72;;;20.99;85.62
8894;BME280;4483;48.622;9.230;2023-09-12T06:30:53;97495.72;;;21.20;85.31
8894;BME280;4483;48.622;9.230;2023-09-12T06:33:20;97504.16;;;21.33;85.43
8894;BME280;4483;48.622;9.230;2023-09-12T06:35:48;97510.34;;;21.32;85.09
8894;BME280;4483;48.622;9.230;2023-09-12T06:38:16;97503.28;;;21.23;84.94
8894;BME280;4483;48.622;9.230;2023-09-12T06:40:43;97505.09;;;21.13;85.67
8894;BME280;4483;48.622;9.230;2023-09-12T06:43:09;97510.88;;;21.16;86.23
8894;BME280;4483;48.622;9.230;2023-09-12T06:45:36;97510.44;;;21.21;86.43
8894;BME280;4483;48.622;9.230;2023-09-12T06:48:03;97519.56;;;21.26;86.79
8894;BME280;4483;48.622;9.230;2023-09-12T06:50:30;97512.84;;;21.33;86.53
8894;BME280;4483;48.622;9.230;2023-09-12T06:52:57;97509.09;;;21.36;86.13
8894;BME280;4483;48.622;9.230;2023-09-12T06:55:25;97511.47;;;21.39;86.08
8894;BME280;4483;48.622;9.230;2023-09-12T06:57:51;97516.03;;;21.37;86.13
8894;BME280;4483;48.622;9.230;2023-09-12T07:00:18;97514.91;;;21.30;86.50
8894;BME280;4483;48.622;9.230;2023-09-12T07:02:45;97508.13;;;21.18;86.49
8894;BME280;4483;48.622;9.230;2023-09-12T07:05:12;97524.38;;;21.12;86.96
8894;BME280;4483;48.622;9.230;2023-09-12T07:07:38;97528.06;;;20.99;87.64
8894;BME280;4483;48.622;9.230;2023-09-12T07:10:06;97532.16;;;20.92;88.57
8894;BME280;4483;48.622;9.230;2023-09-12T07:12:34;97526.66;;;20.95;89.02
8894;BME280;4483;48.622;9.230;2023-09-12T07:15:00;97531.38;;;21.02;89.32
8894;BME280;4483;48.622;9.230;2023-09-12T07:17:27;97533.34;;;21.09;89.48
8894;BME280;4483;48.622;9.230;2023-09-12T07:19:54;97543.84;;;21.19;89.72
8894;BME280;4483;48.622;9.230;2023-09-12T07:22:20;97539.03;;;21.24;89.25
8894;BME280;4483;48.622;9.230;2023-09-12T07:24:47;97543.31;;;21.34;89.49
8894;BME280;4483;48.622;9.230;2023-09-12T07:27:14;97537.56;;;21.50;89.32
8894;BME280;4483;48.622;9.230;2023-09-12T07:29:42;97539.91;;;22.10;89.18
8894;BME280;4483;48.622;9.230;2023-09-12T07:32:08;97540.69;;;22.30;87.17
8894;BME280;4483;48.622;9.230;2023-09-12T07:34:35;97542.47;;;22.29;86.47
8894;BME280;4483;48.622;9.230;2023-09-12T07:37:03;97539.47;;;22.24;86.39
8894;BME280;4483;48.622;9.230;2023-09-12T07:39:30;97545.94;;;22.30;86.73
8894;BME280;4483;48.622;9.230;2023-09-12T07:41:56;97553.09;;;22.37;86.70
8894;BME280;4483;48.622;9.230;2023-09-12T07:44:23;97552.34;;;22.54;85.92
8894;BME280;4483;48.622;9.230;2023-09-12T07:46:51;97552.72;;;22.78;85.48
8894;BME280;4483;48.622;9.230;2023-09-12T07:49:17;97557.19;;;23.23;84.43
8894;BME280;4483;48.622;9.230;2023-09-12T07:51:44;97546.84;;;23.66;82.80
8894;BME280;4483;48.622;9.230;2023-09-12T07:54:10;97557.41;;;24.27;81.45
8894;BME280;4483;48.622;9.230;2023-09-12T07:56:37;97555.97;;;24.58;79.08
8894;BME280;4483;48.622;9.230;2023-09-12T07:59:04;97556.44;;;24.53;78.01
8894;BME280;4483;48.622;9.230;2023-09-12T08:01:30;97555.19;;;24.65;76.93
8894;BME280;4483;48.622;9.230;2023-09-12T08:03:58;97549.84;;;24.49;76.76
8894;BME280;4483;48.622;9.230;2023-09-12T08:06:25;97559.00;;;24.37;76.72
8894;BME280;4483;48.622;9.230;2023-09-12T08:08:52;97551.78;;;24.47;77.01
8894;BME280;4483;48.622;9.230;2023-09-12T08:11:18;97561.06;;;24.77;75.99
8894;BME280;4483;48.622;9.230;2023-09-12T08:13:48;97554.78;;;24.78;75.48
8894;BME280;4483;48.622;9.230;2023-09-12T08:16:14;97562.09;;;25.26;74.61
8894;BME280;4483;48.622;9.230;2023-09-12T08:18:41;97552.34;;;25.92;72.79
8894;BME280;4483;48.622;9.230;2023-09-12T08:21:10;97545.78;;;26.12;70.92
8894;BME280;4483;48.622;9.230;2023-09-12T08:23:37;97541.50;;;26.11;70.27
8894;BME280;4483;48.622;9.230;2023-09-12T08:26:03;97544.75;;;26.53;68.57
8894;BME280;4483;48.622;9.230;2023-09-12T08:28:30;97546.06;;;26.73;67.56
8894;BME280;4483;48.622;9.230;2023-09-12T08:30:56;97546.53;;;26.61;67.48
8894;BME280;4483;48.622;9.230;2023-09-12T08:33:23;97551.34;;;26.73;67.58
8894;BME280;4483;48.622;9.230;2023-09-12T08:35:50;97541.94;;;27.10;65.23
8894;BME280;4483;48.622;9.230;2023-09-12T08:38:18;97548.19;;;27.17;65.04
8894;BME280;4483;48.622;9.230;2023-09-12T08:40:48;97543.84;;;26.93;64.91
8894;BME280;4483;48.622;9.230;2023-09-12T08:43:15;97543.22;;;26.67;65.52
8894;BME280;4483;48.622;9.230;2023-09-12T08:45:42;97536.97;;;26.52;66.18
8894;BME280;4483;48.622;9.230;2023-09-12T08:48:10;97544.72;;;26.61;66.16
8894;BME280;4483;48.622;9.230;2023-09-12T08:50:37;97540.03;;;27.34;65.26
8894;BME280;4483;48.622;9.230;2023-09-12T08:53:04;97536.16;;;28.35;63.31
8894;BME280;4483;48.622;9.230;2023-09-12T08:55:33;97536.84;;;29.25;60.96
8894;BME280;4483;48.622;9.230;2023-09-12T08:58:02;97525.44;;;30.02;58.35
8894;BME280;4483;48.622;9.230;2023-09-12T09:00:29;97521.13;;;30.78;55.94
8894;BME280;4483;48.622;9.230;2023-09-12T09:02:56;97515.03;;;31.31;53.49
8894;BME280;4483;48.622;9.230;2023-09-12T09:05:24;97521.09;;;31.66;51.59
8894;BME280;4483;48.622;9.230;2023-09-12T09:07:51;97520.34;;;31.91;51.22
8894;BME280;4483;48.622;9.230;2023-09-12T09:10:19;97509.09;;;32.15;50.16
8894;BME280;4483;48.622;9.230;2023-09-12T09:12:47;97524.47;;;32.39;49.31
8894;BME280;4483;48.622;9.230;2023-09-12T09:15:20;97516.09;;;32.42;47.79
8894;BME280;4483;48.622;9.230;2023-09-12T09:17:47;97515.22;;;32.29;46.67
8894;BME280;4483;48.622;9.230;2023-09-12T09:20:21;97512.59;;;32.16;47.27
8894;BME280;4483;48.622;9.230;2023-09-12T09:22:56;97510.94;;;32.21;46.72
8894;BME280;4483;48.622;9.230;2023-09-12T09:25:22;97512.56;;;32.62;46.46
8894;BME280;4483;48.622;9.230;2023-09-12T09:27:50;97505.31;;;33.01;45.89
8894;BME280;4483;48.622;9.230;2023-09-12T09:30:17;97493.03;;;33.38;45.04
8894;BME280;4483;48.622;9.230;2023-09-12T09:32:45;97495.06;;;33.80;43.83
8894;BME280;4483;48.622;9.230;2023-09-12T09:35:13;97487.72;;;34.00;42.45
8894;BME280;4483;48.622;9.230;2023-09-12T09:37:41;97491.66;;;34.22;41.70
8894;BME280;4483;48.622;9.230;2023-09-12T09:40:08;97479.03;;;34.29;41.66
8894;BME280;4483;48.622;9.230;2023-09-12T09:42:35;97491.47;;;34.17;40.29
8894;BME280;4483;48.622;9.230;2023-09-12T09:45:04;97489.34;;;34.51;39.95
8894;BME280;4483;48.622;9.230;2023-09-12T09:47:32;97488.09;;;34.89;39.24
8894;BME280;4483;48.622;9.230;2023-09-12T09:49:58;97478.97;;;35.15;38.01
8894;BME280;4483;48.622;9.230;2023-09-12T09:52:26;97472.19;;;35.30;38.17
8894;BME280;4483;48.622;9.230;2023-09-12T09:54:53;97464.72;;;35.62;37.38
8894;BME280;4483;48.622;9.230;2023-09-12T09:57:19;97466.19;;;35.88;36.71
8894;BME280;4483;48.622;9.230;2023-09-12T09:59:48;97449.03;;;36.18;36.15
8894;BME280;4483;48.622;9.230;2023-09-12T10:02:18;97453.91;;;36.68;36.22
8894;BME280;4483;48.622;9.230;2023-09-12T10:04:48;97445.56;;;37.04;35.13
8894;BME280;4483;48.622;9.230;2023-09-12T10:07:17;97441.72;;;37.40;34.61
8894;BME280;4483;48.622;9.230;2023-09-12T10:09:45;97444.59;;;37.66;33.54
8894;BME280;4483;48.622;9.230;2023-09-12T10:12:12;97440.94;;;37.72;33.16
8894;BME280;4483;48.622;9.230;2023-09-12T10:14:39;97436.28;;;37.68;32.65
8894;BME280;4483;48.622;9.230;2023-09-12T10:17:06;97443.28;;;36.84;33.20
8894;BME280;4483;48.622;9.230;2023-09-12T10:19:38;97451.69;;;36.18;33.45
8894;BME280;4483;48.622;9.230;2023-09-12T10:22:12;97447.25;;;35.89;34.58
8894;BME280;4483;48.622;9.230;2023-09-12T10:24:42;97439.22;;;35.30;34.75
8894;BME280;4483;48.622;9.230;2023-09-12T10:27:11;97443.53;;;35.49;34.80
8894;BME280;4483;48.622;9.230;2023-09-12T10:29:38;97445.28;;;36.19;34.80
8894;BME280;4483;48.622;9.230;2023-09-12T10:32:06;97449.56;;;36.78;33.83
8894;BME280;4483;48.622;9.230;2023-09-12T10:34:33;97430.75;;;37.29;33.68
8894;BME280;4483;48.622;9.230;2023-09-12T10:37:03;97428.69;;;37.76;33.52
8894;BME280;4483;48.622;9.230;2023-09-12T10:39:32;97440.88;;;38.17;32.17
8894;BME280;4483;48.622;9.230;2023-09-12T10:41:59;97435.66;;;38.44;31.93
8894;BME280;4483;48.622;9.230;2023-09-12T10:44:25;97434.22;;;38.74;30.54
8894;BME280;4483;48.622;9.230;2023-09-12T10:46:53;97433.06;;;38.92;30.21
8894;BME280;4483;48.622;9.230;2023-09-12T10:49:20;97434.59;;;39.26;30.17
8894;BME280;4483;48.622;9.230;2023-09-12T10:51:48;97443.03;;;39.35;29.92
8894;BME280;4483;48.622;9.230;2023-09-12T10:54:24;97430.94;;;39.37;29.84
8894;BME280;4483;48.622;9.230;2023-09-12T10:57:02;97431.53;;;39.44;29.16
8894;BME280;4483;48.622;9.230;2023-09-12T10:59:29;97431.59;;;39.49;28.97
8894;BME280;4483;48.622;9.230;2023-09-12T11:02:29;97427.38;;;39.58;28.58
8894;BME280;4483;48.622;9.230;2023-09-12T11:04:57;97422.56;;;39.65;28.42
8894;BME280;4483;48.622;9.230;2023-09-12T11:07:30;97419.97;;;39.75;27.93
8894;BME280;4483;48.622;9.230;2023-09-12T11:10:21;97419.72;;;40.08;27.03
8894;BME280;4483;48.622;9.230;2023-09-12T11:12:49;97416.97;;;40.40;27.40
8894;BME280;4483;48.622;9.230;2023-09-12T11:15:17;97413.31;;;40.56;27.29
8894;BME280;4483;48.622;9.230;2023-09-12T11:17:44;97415.75;;;40.68;26.83
8894;BME280;4483;48.622;9.230;2023-09-12T11:20:12;97410.47;;;40.83;26.55
8894;BME280;4483;48.622;9.230;2023-09-12T11:22:41;97407.00;;;40.97;26.19
8894;BME280;4483;48.622;9.230;2023-09-12T11:25:20;97408.88;;;40.92;25.31
8894;BME280;4483;48.622;9.230;2023-09-12T11:28:04;97409.91;;;40.76;25.26
8894;BME280;4483;48.622;9.230;2023-09-12T11:30:31;97396.13;;;40.77;25.96
8894;BME280;4483;48.622;9.230;2023-09-12T11:33:00;97407.00;;;40.97;25.61
8894;BME280;4483;48.622;9.230;2023-09-12T11:35:29;97397.59;;;41.15;25.32
8894;BME280;4483;48.622;9.230;2023-09-12T11:38:02;97394.91;;;41.15;25.53
8894;BME280;4483;48.622;9.230;2023-09-12T11:40:43;97385.16;;;41.04;25.40
8894;BME280;4483;48.622;9.230;2023-09-12T11:43:20;97384.69;;;41.17;25.50
8894;BME280;4483;48.622;9.230;2023-09-12T11:45:47;97381.56;;;40.88;24.61
8894;BME280;4483;48.622;9.230;2023-09-12T11:48:13;97379.25;;;40.50;25.44
8894;BME280;4483;48.622;9.230;2023-09-12T11:50:41;97379.53;;;40.54;26.01
8894;BME280;4483;48.622;9.230;2023-09-12T11:53:09;97373.69;;;40.77;26.25
8894;BME280;4483;48.622;9.230;2023-09-12T11:55:41;97372.41;;;40.94;25.85
8894;BME280;4483;48.622;9.230;2023-09-12T11:58:10;97356.78;;;41.17;25.61
8894;BME280;4483;48.622;9.230;2023-09-12T12:00:37;97363.03;;;41.32;25.10
8894;BME280;4483;48.622;9.230;2023-09-12T12:03:04;97357.94;;;41.46;25.17
8894;BME280;4483;48.622;9.230;2023-09-12T12:05:32;97363.66;;;41.64;24.56
8894;BME280;4483;48.622;9.230;2023-09-12T12:07:59;97364.41;;;41.85;24.08
8894;BME280;4483;48.622;9.230;2023-09-12T12:10:25;97364.41;;;42.05;23.84
8894;BME280;4483;48.622;9.230;2023-09-12T12:12:53;97370.06;;;42.29;23.50
8894;BME280;4483;48.622;9.230;2023-09-12T12:15:21;97370.06;;;42.29;23.12
8894;BME280;4483;48.622;9.230;2023-09-12T12:17:48;97365.50;;;42.09;22.87
8894;BME280;4483;48.622;9.230;2023-09-12T12:20:14;97360.91;;;41.99;23.14
8894;BME280;4483;48.622;9.230;2023-09-12T12:22:41;97358.22;;;41.64;23.08
8894;BME280;4483;48.622;9.230;2023-09-12T12:25:08;97355.75;;;41.28;23.07
8894;BME280;4483;48.622;9.230;2023-09-12T12:27:36;97352.25;;;41.22;23.11
8894;BME280;4483;48.622;9.230;2023-09-12T12:30:05;97351.63;;;41.10;23.80
8894;BME280;4483;48.622;9.230;2023-09-12T12:32:33;97356.47;;;40.93;23.86
8894;BME280;4483;48.622;9.230;2023-09-12T12:35:00;97355.88;;;40.81;23.97
8894;BME280;4483;48.622;9.230;2023-09-12T12:37:28;97305.78;;;40.48;23.77
8894;BME280;4483;48.622;9.230;2023-09-12T12:39:57;97347.22;;;40.79;23.84
8894;BME280;4483;48.622;9.230;2023-09-12T12:42:23;97336.19;;;40.85;23.40
8894;BME280;4483;48.622;9.230;2023-09-12T12:44:53;97332.66;;;40.85;23.56
8894;BME280;4483;48.622;9.230;2023-09-12T12:47:21;97334.72;;;40.68;23.96
8894;BME280;4483;48.622;9.230;2023-09-12T12:49:52;97334.44;;;40.49;23.55
8894;BME280;4483;48.622;9.230;2023-09-12T12:52:22;97338.81;;;40.19;24.52
8894;BME280;4483;48.622;9.230;2023-09-12T12:54:50;97330.22;;;40.22;24.25
8894;BME280;4483;48.622;9.230;2023-09-12T12:57:18;97281.81;;;40.05;24.03
8894;BME280;4483;48.622;9.230;2023-09-12T12:59:45;97331.81;;;40.18;24.29
8894;BME280;4483;48.622;9.230;2023-09-12T13:02:12;97328.44;;;39.95;24.32
8894;BME280;4483;48.622;9.230;2023-09-12T13:04:39;97327.53;;;39.85;24.60
8894;BME280;4483;48.622;9.230;2023-09-12T13:07:06;97319.16;;;39.81;24.70
8894;BME280;4483;48.622;9.230;2023-09-12T13:09:33;97310.09;;;39.92;24.88
8894;BME280;4483;48.622;9.230;2023-09-12T13:12:00;97312.63;;;40.14;24.85
8894;BME280;4483;48.622;9.230;2023-09-12T13:14:27;97316.09;;;40.04;25.20
8894;BME280;4483;48.622;9.230;2023-09-12T13:16:56;97305.22;;;39.94;24.44
8894;BME280;4483;48.622;9.230;2023-09-12T13:19:23;97307.16;;;39.99;23.92
8894;BME280;4483;48.622;9.230;2023-09-12T13:21:49;97309.81;;;39.57;23.28
8894;BME280;4483;48.622;9.230;2023-09-12T13:24:17;97303.13;;;39.33;23.85
8894;BME280;4483;48.622;9.230;2023-09-12T13:26:44;97302.00;;;39.29;23.74